sensor_id;sensor_type;location;lat;lon;timestamp;pressure;altitude;pressure_sealevel;temperature;humidity
76404;BME280;65232;48.358;2.122;2023-01-23T00:00:24;102512.66;;;1.92;76.50
76404;BME280;65232;48.358;2.122;2023-01-23T00:00:50;102515.31;;;1.91;76.56
76404;BME280;65232;48.358;2.122;2023-01-23T00:01:19;102509.16;;;1.90;76.42
76404;BME280;65232;48.358;2.122;2023-01-23T00:01:46;102515.22;;;1.94;76.55
76404;BME280;65232;48.358;2.122;2023-01-23T00:02:13;102508.25;;;1.93;76.47
76404;BME280;65232;48.358;2.122;2023-01-23T00:02:39;102514.34;;;1.95;76.25
76404;BME280;65232;48.358;2.122;2023-01-23T00:03:04;102511.72;;;1.93;76.29
76404;BME280;65232;48.358;2.122;2023-01-23T00:03:30;102511.69;;;1.95;76.38
76404;BME280;65232;48.358;2.122;2023-01-23T00:03:56;102512.59;;;1.94;76.54
76404;BME280;65232;48.358;2.122;2023-01-23T00:04:21;102515.41;;;1.86;76.43
76404;BME280;65232;48.358;2.122;2023-01-23T00:04:47;102508.28;;;1.90;76.15
76404;BME280;65232;48.358;2.122;2023-01-23T00:05:13;102508.94;;;2.01;76.32
76404;BME280;65232;48.358;2.122;2023-01-23T00:05:39;102517.75;;;2.00;76.07
76404;BME280;65232;48.358;2.122;2023-01-23T00:06:07;102514.34;;;1.95;76.32
76404;BME280;65232;48.358;2.122;2023-01-23T00:06:33;102511.78;;;1.92;76.73
76404;BME280;65232;48.358;2.122;2023-01-23T00:06:58;102514.34;;;1.95;76.59
76404;BME280;65232;48.358;2.122;2023-01-23T00:07:24;102513.53;;;1.91;76.52
76404;BME280;65232;48.358;2.122;2023-01-23T00:07:49;102512.69;;;1.89;76.79
76404;BME280;65232;48.358;2.122;2023-01-23T00:08:15;102506.63;;;1.84;76.37
76404;BME280;65232;48.358;2.122;2023-01-23T00:08:44;102509.31;;;1.81;76.84
76404;BME280;65232;48.358;2.122;2023-01-23T00:09:09;102510.97;;;1.88;76.72
76404;BME280;65232;48.358;2.122;2023-01-23T00:09:35;102506.56;;;1.87;76.74
76404;BME280;65232;48.358;2.122;2023-01-23T00:10:00;102510.00;;;1.92;76.49
76404;BME280;65232;48.358;2.122;2023-01-23T00:10:26;102506.56;;;1.87;76.53
76404;BME280;65232;48.358;2.122;2023-01-23T00:10:51;102503.81;;;1.93;76.42
76404;BME280;65232;48.358;2.122;2023-01-23T00:11:22;102503.78;;;1.95;76.48
76404;BME280;65232;48.358;2.122;2023-01-23T00:11:48;102505.53;;;1.94;76.71
76404;BME280;65232;48.358;2.122;2023-01-23T00:12:13;102502.91;;;1.94;76.78
76404;BME280;65232;48.358;2.122;2023-01-23T00:12:43;102501.16;;;1.93;76.43
76404;BME280;65232;48.358;2.122;2023-01-23T00:13:09;102504.78;;;1.89;76.49
76404;BME280;65232;48.358;2.122;2023-01-23T00:13:34;102508.28;;;1.90;76.60
76404;BME280;65232;48.358;2.122;2023-01-23T00:14:00;102507.50;;;1.85;76.71
76404;BME280;65232;48.358;2.122;2023-01-23T00:14:26;102504.00;;;1.83;76.64
76404;BME280;65232;48.358;2.122;2023-01-23T00:14:52;102502.38;;;1.77;76.96
76404;BME280;65232;48.358;2.122;2023-01-23T00:15:18;102500.66;;;1.74;76.98
76404;BME280;65232;48.358;2.122;2023-01-23T00:15:43;102503.44;;;1.67;76.79
76404;BME280;65232;48.358;2.122;2023-01-23T00:16:11;102500.91;;;1.62;77.13
76404;BME280;65232;48.358;2.122;2023-01-23T00:16:37;102506.00;;;1.71;77.31
76404;BME280;65232;48.358;2.122;2023-01-23T00:17:02;102503.31;;;1.74;77.18
76404;BME280;65232;48.358;2.122;2023-01-23T00:17:28;102502.38;;;1.77;77.09
76404;BME280;65232;48.358;2.122;2023-01-23T00:17:53;102503.13;;;1.84;77.03
76404;BME280;65232;48.358;2.122;2023-01-23T00:18:19;102498.66;;;1.87;76.98
76404;BME280;65232;48.358;2.122;2023-01-23T00:18:45;102504.06;;;1.80;76.64
76404;BME280;65232;48.358;2.122;2023-01-23T00:19:11;102499.75;;;1.77;76.95
76404;BME280;65232;48.358;2.122;2023-01-23T00:19:36;102508.44;;;1.81;77.03
76404;BME280;65232;48.358;2.122;2023-01-23T00:20:02;102498.69;;;1.86;76.87
76404;BME280;65232;48.358;2.122;2023-01-23T00:20:28;102502.22;;;1.85;76.74
76404;BME280;65232;48.358;2.122;2023-01-23T00:20:54;102495.19;;;1.84;76.69
76404;BME280;65232;48.358;2.122;2023-01-23T00:21:22;102502.09;;;1.92;76.63
76404;BME280;65232;48.358;2.122;2023-01-23T00:21:47;102500.22;;;1.96;76.28
76404;BME280;65232;48.358;2.122;2023-01-23T00:22:13;102503.81;;;1.93;76.29
76404;BME280;65232;48.358;2.122;2023-01-23T00:22:40;102501.31;;;1.87;76.38
76404;BME280;65232;48.358;2.122;2023-01-23T00:23:06;102499.50;;;1.89;76.50
76404;BME280;65232;48.358;2.122;2023-01-23T00:23:32;102498.50;;;1.95;76.27
76404;BME280;65232;48.358;2.122;2023-01-23T00:23:58;102494.97;;;1.94;76.09
76404;BME280;65232;48.358;2.122;2023-01-23T00:24:25;102501.13;;;1.95;76.40
76404;BME280;65232;48.358;2.122;2023-01-23T00:24:51;102499.28;;;2.00;76.14
76404;BME280;65232;48.358;2.122;2023-01-23T00:25:17;102494.16;;;1.92;76.37
76404;BME280;65232;48.358;2.122;2023-01-23T00:25:42;102497.56;;;1.97;76.32
76404;BME280;65232;48.358;2.122;2023-01-23T00:26:10;102502.97;;;1.93;76.09
76404;BME280;65232;48.358;2.122;2023-01-23T00:26:38;102499.75;;;1.77;76.22
76404;BME280;65232;48.358;2.122;2023-01-23T00:27:03;102506.00;;;1.71;76.64
76404;BME280;65232;48.358;2.122;2023-01-23T00:27:29;102501.63;;;1.69;76.93
76404;BME280;65232;48.358;2.122;2023-01-23T00:27:54;102505.06;;;1.74;76.70
76404;BME280;65232;48.358;2.122;2023-01-23T00:28:20;102498.00;;;1.76;76.68
76404;BME280;65232;48.358;2.122;2023-01-23T00:28:46;102505.91;;;1.77;76.65
76404;BME280;65232;48.358;2.122;2023-01-23T00:29:11;102502.31;;;1.78;77.06
76404;BME280;65232;48.358;2.122;2023-01-23T00:29:39;102500.63;;;1.77;76.81
76404;BME280;65232;48.358;2.122;2023-01-23T00:30:06;102503.94;;;1.87;76.80
76404;BME280;65232;48.358;2.122;2023-01-23T00:30:32;102503.81;;;1.93;76.50
76404;BME280;65232;48.358;2.122;2023-01-23T00:31:06;102500.06;;;2.05;76.19
76404;BME280;65232;48.358;2.122;2023-01-23T00:31:34;102498.59;;;1.92;76.08
76404;BME280;65232;48.358;2.122;2023-01-23T00:32:01;102506.44;;;1.93;76.10
76404;BME280;65232;48.358;2.122;2023-01-23T00:32:27;102502.84;;;1.97;76.11
76404;BME280;65232;48.358;2.122;2023-01-23T00:32:52;102501.13;;;1.95;75.74
76404;BME280;65232;48.358;2.122;2023-01-23T00:33:18;102504.81;;;1.88;76.29
76404;BME280;65232;48.358;2.122;2023-01-23T00:33:44;102499.53;;;1.88;76.27
76404;BME280;65232;48.358;2.122;2023-01-23T00:34:12;102500.63;;;1.77;76.77
76404;BME280;65232;48.358;2.122;2023-01-23T00:34:39;102506.75;;;1.78;76.61
76404;BME280;65232;48.358;2.122;2023-01-23T00:35:06;102506.66;;;1.83;76.69
76404;BME280;65232;48.358;2.122;2023-01-23T00:35:34;102507.50;;;1.85;76.74
76404;BME280;65232;48.358;2.122;2023-01-23T00:36:00;102503.09;;;1.85;77.02
76404;BME280;65232;48.358;2.122;2023-01-23T00:36:31;102500.47;;;1.84;76.76
76404;BME280;65232;48.358;2.122;2023-01-23T00:36:56;102504.03;;;1.81;76.84
76404;BME280;65232;48.358;2.122;2023-01-23T00:37:23;102506.69;;;1.81;76.96
76404;BME280;65232;48.358;2.122;2023-01-23T00:37:48;102503.13;;;1.84;77.04
76404;BME280;65232;48.358;2.122;2023-01-23T00:38:14;102502.31;;;1.80;76.97
76404;BME280;65232;48.358;2.122;2023-01-23T00:38:40;102504.88;;;1.83;76.57
76404;BME280;65232;48.358;2.122;2023-01-23T00:39:11;102512.66;;;1.92;76.34
76404;BME280;65232;48.358;2.122;2023-01-23T00:39:42;102506.41;;;1.95;76.35
76404;BME280;65232;48.358;2.122;2023-01-23T00:40:10;102511.81;;;1.90;76.48
76404;BME280;65232;48.358;2.122;2023-01-23T00:40:36;102512.75;;;1.86;76.57
76404;BME280;65232;48.358;2.122;2023-01-23T00:41:02;102515.41;;;1.85;76.82
76404;BME280;65232;48.358;2.122;2023-01-23T00:41:28;102514.50;;;1.87;76.59
76404;BME280;65232;48.358;2.122;2023-01-23T00:41:53;102512.69;;;1.89;76.60
76404;BME280;65232;48.358;2.122;2023-01-23T00:42:19;102507.31;;;1.94;76.31
76404;BME280;65232;48.358;2.122;2023-01-23T00:42:44;102511.66;;;1.96;76.51
76404;BME280;65232;48.358;2.122;2023-01-23T00:43:10;102512.59;;;1.94;76.44
76404;BME280;65232;48.358;2.122;2023-01-23T00:43:35;102503.00;;;1.91;76.50
76404;BME280;65232;48.358;2.122;2023-01-23T00:44:01;102508.28;;;1.90;76.55
76404;BME280;65232;48.358;2.122;2023-01-23T00:44:26;102512.53;;;1.97;76.40
76404;BME280;65232;48.358;2.122;2023-01-23T00:44:52;102514.28;;;1.98;76.42
76404;BME280;65232;48.358;2.122;2023-01-23T00:45:17;102509.00;;;1.98;76.43
76404;BME280;65232;48.358;2.122;2023-01-23T00:45:44;102513.09;;;2.12;76.07
76404;BME280;65232;48.358;2.122;2023-01-23T00:46:11;102508.75;;;2.10;75.88
76404;BME280;65232;48.358;2.122;2023-01-23T00:46:38;102517.66;;;2.06;75.71
76404;BME280;65232;48.358;2.122;2023-01-23T00:47:04;102509.81;;;2.01;75.69
76404;BME280;65232;48.358;2.122;2023-01-23T00:47:30;102514.25;;;1.99;75.86
76404;BME280;65232;48.358;2.122;2023-01-23T00:47:55;102520.44;;;1.98;76.07
76404;BME280;65232;48.358;2.122;2023-01-23T00:48:21;102519.47;;;2.02;75.84
76404;BME280;65232;48.358;2.122;2023-01-23T00:48:47;102517.00;;;1.93;76.16
76404;BME280;65232;48.358;2.122;2023-01-23T00:49:13;102516.91;;;1.99;76.28
76404;BME280;65232;48.358;2.122;2023-01-23T00:49:38;102519.53;;;1.99;76.18
76404;BME280;65232;48.358;2.122;2023-01-23T00:50:04;102524.81;;;1.99;76.35
76404;BME280;65232;48.358;2.122;2023-01-23T00:50:30;102515.97;;;2.02;76.08
76404;BME280;65232;48.358;2.122;2023-01-23T00:50:55;102527.41;;;2.02;76.38
76404;BME280;65232;48.358;2.122;2023-01-23T00:51:21;102522.06;;;2.05;76.48
76404;BME280;65232;48.358;2.122;2023-01-23T00:51:46;102516.88;;;2.01;76.30
76404;BME280;65232;48.358;2.122;2023-01-23T00:52:12;102523.88;;;2.03;76.26
76404;BME280;65232;48.358;2.122;2023-01-23T00:52:37;102522.13;;;2.02;76.40
76404;BME280;65232;48.358;2.122;2023-01-23T00:53:03;102517.72;;;2.03;76.48
76404;BME280;65232;48.358;2.122;2023-01-23T00:53:29;102524.78;;;2.01;76.60
76404;BME280;65232;48.358;2.122;2023-01-23T00:53:54;102524.00;;;1.96;76.54
76404;BME280;65232;48.358;2.122;2023-01-23T00:54:20;102524.88;;;1.96;76.28
76404;BME280;65232;48.358;2.122;2023-01-23T00:54:46;102525.03;;;1.89;76.67
76404;BME280;65232;48.358;2.122;2023-01-23T00:55:11;102525.06;;;1.87;76.50
76404;BME280;65232;48.358;2.122;2023-01-23T00:55:38;102524.19;;;1.87;76.49
76404;BME280;65232;48.358;2.122;2023-01-23T00:56:04;102534.75;;;1.85;76.51
76404;BME280;65232;48.358;2.122;2023-01-23T00:56:30;102528.66;;;1.82;76.45
76404;BME280;65232;48.358;2.122;2023-01-23T00:56:55;102526.13;;;1.77;76.87
76404;BME280;65232;48.358;2.122;2023-01-23T00:57:21;102526.22;;;1.72;76.94
76404;BME280;65232;48.358;2.122;2023-01-23T00:57:47;102525.13;;;1.83;76.89
76404;BME280;65232;48.358;2.122;2023-01-23T00:58:12;102521.81;;;1.73;77.11
76404;BME280;65232;48.358;2.122;2023-01-23T00:58:38;102521.88;;;1.68;77.33
76404;BME280;65232;48.358;2.122;2023-01-23T00:59:06;102527.09;;;1.71;77.44
76404;BME280;65232;48.358;2.122;2023-01-23T00:59:32;102524.50;;;1.70;77.35
76404;BME280;65232;48.358;2.122;2023-01-23T00:59:57;102522.69;;;1.72;77.34
76404;BME280;65232;48.358;2.122;2023-01-23T01:00:24;102520.25;;;1.61;77.26
76404;BME280;65232;48.358;2.122;2023-01-23T01:00:50;102522.81;;;1.66;77.43
76404;BME280;65232;48.358;2.122;2023-01-23T01:01:16;102522.00;;;1.62;77.68
76404;BME280;65232;48.358;2.122;2023-01-23T01:01:43;102525.53;;;1.63;77.60
76404;BME280;65232;48.358;2.122;2023-01-23T01:02:08;102521.88;;;1.68;77.68
76404;BME280;65232;48.358;2.122;2023-01-23T01:02:34;102517.44;;;1.70;77.34
76404;BME280;65232;48.358;2.122;2023-01-23T01:02:59;102521.13;;;1.62;77.08
76404;BME280;65232;48.358;2.122;2023-01-23T01:03:25;102519.25;;;1.68;77.20
76404;BME280;65232;48.358;2.122;2023-01-23T01:03:50;102521.19;;;1.59;77.25
76404;BME280;65232;48.358;2.122;2023-01-23T01:04:16;102514.19;;;1.56;77.39
76404;BME280;65232;48.358;2.122;2023-01-23T01:04:41;102517.78;;;1.52;77.43
76404;BME280;65232;48.358;2.122;2023-01-23T01:05:07;102516.91;;;1.52;77.67
76404;BME280;65232;48.358;2.122;2023-01-23T01:05:33;102515.88;;;1.60;77.66
76404;BME280;65232;48.358;2.122;2023-01-23T01:05:59;102523.81;;;1.60;77.53
76404;BME280;65232;48.358;2.122;2023-01-23T01:06:27;102515.88;;;1.60;77.88
76404;BME280;65232;48.358;2.122;2023-01-23T01:06:55;102515.03;;;1.58;77.67
76404;BME280;65232;48.358;2.122;2023-01-23T01:07:21;102521.94;;;1.64;77.24
76404;BME280;65232;48.358;2.122;2023-01-23T01:07:47;102515.06;;;1.57;77.49
76404;BME280;65232;48.358;2.122;2023-01-23T01:08:12;102515.97;;;1.54;77.71
76404;BME280;65232;48.358;2.122;2023-01-23T01:08:38;102517.69;;;1.57;77.62
76404;BME280;65232;48.358;2.122;2023-01-23T01:09:04;102520.19;;;1.64;77.66
76404;BME280;65232;48.358;2.122;2023-01-23T01:09:30;102519.25;;;1.67;77.54
76404;BME280;65232;48.358;2.122;2023-01-23T01:09:55;102518.41;;;1.66;77.58
76404;BME280;65232;48.358;2.122;2023-01-23T01:10:20;102521.09;;;1.63;77.70
76404;BME280;65232;48.358;2.122;2023-01-23T01:10:46;102526.41;;;1.62;77.65
76404;BME280;65232;48.358;2.122;2023-01-23T01:11:11;102533.56;;;1.55;77.95
76404;BME280;65232;48.358;2.122;2023-01-23T01:11:37;102518.66;;;1.53;77.87
76404;BME280;65232;48.358;2.122;2023-01-23T01:12:02;102523.81;;;1.59;77.75
76404;BME280;65232;48.358;2.122;2023-01-23T01:12:29;102530.03;;;1.56;77.77
76404;BME280;65232;48.358;2.122;2023-01-23T01:12:56;102535.50;;;1.46;78.02
76404;BME280;65232;48.358;2.122;2023-01-23T01:13:21;102533.81;;;1.40;78.15
76404;BME280;65232;48.358;2.122;2023-01-23T01:13:48;102531.97;;;1.47;78.32
76404;BME280;65232;48.358;2.122;2023-01-23T01:14:14;102531.97;;;1.47;78.02
76404;BME280;65232;48.358;2.122;2023-01-23T01:14:40;102532.06;;;1.40;78.46
76404;BME280;65232;48.358;2.122;2023-01-23T01:15:07;102523.25;;;1.40;78.42
76404;BME280;65232;48.358;2.122;2023-01-23T01:15:33;102527.59;;;1.44;78.43
76404;BME280;65232;48.358;2.122;2023-01-23T01:15:58;102529.28;;;1.48;78.33
76404;BME280;65232;48.358;2.122;2023-01-23T01:16:26;102525.91;;;1.40;78.51
76404;BME280;65232;48.358;2.122;2023-01-23T01:16:52;102525.00;;;1.42;78.50
76404;BME280;65232;48.358;2.122;2023-01-23T01:17:19;102523.25;;;1.41;78.38
76404;BME280;65232;48.358;2.122;2023-01-23T01:17:46;102521.53;;;1.39;78.63
76404;BME280;65232;48.358;2.122;2023-01-23T01:18:11;102518.06;;;1.35;78.38
76404;BME280;65232;48.358;2.122;2023-01-23T01:18:38;102518.06;;;1.35;78.70
76404;BME280;65232;48.358;2.122;2023-01-23T01:19:04;102521.53;;;1.39;78.63
76404;BME280;65232;48.358;2.122;2023-01-23T01:19:29;102522.31;;;1.46;78.32
76404;BME280;65232;48.358;2.122;2023-01-23T01:19:54;102518.84;;;1.42;78.51
76404;BME280;65232;48.358;2.122;2023-01-23T01:20:21;102521.28;;;1.53;78.17
76404;BME280;65232;48.358;2.122;2023-01-23T01:20:48;102510.50;;;1.65;77.98
76404;BME280;65232;48.358;2.122;2023-01-23T01:21:14;102513.16;;;1.63;77.70
76404;BME280;65232;48.358;2.122;2023-01-23T01:21:40;102511.34;;;1.67;77.83
76404;BME280;65232;48.358;2.122;2023-01-23T01:22:06;102512.16;;;1.70;77.50
76404;BME280;65232;48.358;2.122;2023-01-23T01:22:32;102517.47;;;1.69;77.63
76404;BME280;65232;48.358;2.122;2023-01-23T01:22:58;102513.06;;;1.69;77.70
76404;BME280;65232;48.358;2.122;2023-01-23T01:23:25;102513.03;;;1.72;77.51
76404;BME280;65232;48.358;2.122;2023-01-23T01:23:50;102516.59;;;1.68;77.48
76404;BME280;65232;48.358;2.122;2023-01-23T01:24:16;102513.13;;;1.65;77.46
76404;BME280;65232;48.358;2.122;2023-01-23T01:24:41;102524.59;;;1.64;77.67
76404;BME280;65232;48.358;2.122;2023-01-23T01:25:07;102508.75;;;1.64;78.05
76404;BME280;65232;48.358;2.122;2023-01-23T01:25:33;102513.22;;;1.62;78.08
76404;BME280;65232;48.358;2.122;2023-01-23T01:25:59;102513.13;;;1.66;77.66
76404;BME280;65232;48.358;2.122;2023-01-23T01:26:24;102517.53;;;1.66;77.92
76404;BME280;65232;48.358;2.122;2023-01-23T01:26:50;102514.00;;;1.67;77.96
76404;BME280;65232;48.358;2.122;2023-01-23T01:27:15;102515.72;;;1.68;77.75
76404;BME280;65232;48.358;2.122;2023-01-23T01:27:41;102513.16;;;1.63;77.68
76404;BME280;65232;48.358;2.122;2023-01-23T01:28:06;102515.56;;;1.77;77.44
76404;BME280;65232;48.358;2.122;2023-01-23T01:28:34;102515.53;;;1.78;77.56
76404;BME280;65232;48.358;2.122;2023-01-23T01:29:00;102512.06;;;1.76;77.65
76404;BME280;65232;48.358;2.122;2023-01-23T01:29:25;102512.19;;;1.69;77.35
76404;BME280;65232;48.358;2.122;2023-01-23T01:29:51;102512.13;;;1.73;77.45
76404;BME280;65232;48.358;2.122;2023-01-23T01:30:18;102509.47;;;1.73;77.44
76404;BME280;65232;48.358;2.122;2023-01-23T01:30:45;102511.22;;;1.74;77.52
76404;BME280;65232;48.358;2.122;2023-01-23T01:31:12;102511.16;;;1.77;77.36
76404;BME280;65232;48.358;2.122;2023-01-23T01:31:38;102507.59;;;1.78;77.18
76404;BME280;65232;48.358;2.122;2023-01-23T01:32:04;102511.34;;;1.67;77.12
76404;BME280;65232;48.358;2.122;2023-01-23T01:32:29;102514.84;;;1.67;77.26
76404;BME280;65232;48.358;2.122;2023-01-23T01:32:55;102504.41;;;1.63;77.50
76404;BME280;65232;48.358;2.122;2023-01-23T01:33:21;102511.38;;;1.65;77.38
76404;BME280;65232;48.358;2.122;2023-01-23T01:33:50;102509.63;;;1.64;77.63
76404;BME280;65232;48.358;2.122;2023-01-23T01:34:17;102512.19;;;1.69;77.52
76404;BME280;65232;48.358;2.122;2023-01-23T01:34:42;102508.63;;;1.71;77.43
76404;BME280;65232;48.358;2.122;2023-01-23T01:35:09;102507.84;;;1.66;77.48
76404;BME280;65232;48.358;2.122;2023-01-23T01:35:34;102512.16;;;1.72;77.35
76404;BME280;65232;48.358;2.122;2023-01-23T01:36:00;102503.31;;;1.74;77.50
76404;BME280;65232;48.358;2.122;2023-01-23T01:36:26;102509.53;;;1.70;77.45
76404;BME280;65232;48.358;2.122;2023-01-23T01:36:51;102513.03;;;1.71;77.34
76404;BME280;65232;48.358;2.122;2023-01-23T01:37:17;102509.63;;;1.64;77.32
76404;BME280;65232;48.358;2.122;2023-01-23T01:37:44;102508.88;;;1.58;77.68
76404;BME280;65232;48.358;2.122;2023-01-23T01:38:09;102506.22;;;1.61;77.74
76404;BME280;65232;48.358;2.122;2023-01-23T01:38:35;102506.03;;;1.68;77.39
76404;BME280;65232;48.358;2.122;2023-01-23T01:39:01;102503.28;;;1.76;77.09
76404;BME280;65232;48.358;2.122;2023-01-23T01:39:26;102498.78;;;1.80;77.23
76404;BME280;65232;48.358;2.122;2023-01-23T01:39:52;102505.78;;;1.82;76.98
76404;BME280;65232;48.358;2.122;2023-01-23T01:40:22;102497.97;;;1.77;76.88
76404;BME280;65232;48.358;2.122;2023-01-23T01:40:48;102508.56;;;1.76;77.14
76404;BME280;65232;48.358;2.122;2023-01-23T01:41:15;102504.19;;;1.75;77.10
76404;BME280;65232;48.358;2.122;2023-01-23T01:41:40;102500.78;;;1.67;77.62
76404;BME280;65232;48.358;2.122;2023-01-23T01:42:06;102505.19;;;1.68;77.66
76404;BME280;65232;48.358;2.122;2023-01-23T01:42:38;102508.72;;;1.67;77.75
76404;BME280;65232;48.358;2.122;2023-01-23T01:43:06;102506.03;;;1.70;77.41
76404;BME280;65232;48.358;2.122;2023-01-23T01:43:33;102509.28;;;1.84;77.46
76404;BME280;65232;48.358;2.122;2023-01-23T01:43:58;102502.44;;;1.74;77.43
76404;BME280;65232;48.358;2.122;2023-01-23T01:44:24;102506.78;;;1.76;77.54
76404;BME280;65232;48.358;2.122;2023-01-23T01:44:58;102500.63;;;1.76;77.45
76404;BME280;65232;48.358;2.122;2023-01-23T01:46:27;102497.84;;;1.84;77.35
76404;BME280;65232;48.358;2.122;2023-01-23T01:46:52;102506.59;;;1.86;77.27
76404;BME280;65232;48.358;2.122;2023-01-23T01:47:18;102504.81;;;1.88;77.46
76404;BME280;65232;48.358;2.122;2023-01-23T01:47:43;102502.19;;;1.86;77.41
76404;BME280;65232;48.358;2.122;2023-01-23T01:48:09;102503.16;;;1.82;77.47
76404;BME280;65232;48.358;2.122;2023-01-23T01:49:10;102499.81;;;1.72;77.52
76404;BME280;65232;48.358;2.122;2023-01-23T01:49:38;102498.91;;;1.75;77.35
76404;BME280;65232;48.358;2.122;2023-01-23T01:50:05;102500.63;;;1.77;77.43
76404;BME280;65232;48.358;2.122;2023-01-23T01:50:31;102492.63;;;1.81;77.65
76404;BME280;65232;48.358;2.122;2023-01-23T01:50:58;102503.13;;;1.84;77.33
76404;BME280;65232;48.358;2.122;2023-01-23T01:51:53;102504.81;;;1.88;77.03
76404;BME280;65232;48.358;2.122;2023-01-23T01:52:22;102496.97;;;1.83;77.20
76404;BME280;65232;48.358;2.122;2023-01-23T01:52:48;102502.13;;;1.91;77.07
76404;BME280;65232;48.358;2.122;2023-01-23T01:53:13;102501.31;;;1.87;77.09
76404;BME280;65232;48.358;2.122;2023-01-23T01:53:39;102498.75;;;1.83;77.15
76404;BME280;65232;48.358;2.122;2023-01-23T01:54:38;102503.16;;;1.82;77.19
76404;BME280;65232;48.358;2.122;2023-01-23T01:55:05;102499.63;;;1.82;77.34
76404;BME280;65232;48.358;2.122;2023-01-23T01:55:31;102500.44;;;1.87;77.38
76404;BME280;65232;48.358;2.122;2023-01-23T01:55:57;102503.00;;;1.91;76.75
76404;BME280;65232;48.358;2.122;2023-01-23T01:56:24;102496.94;;;1.85;77.06
76404;BME280;65232;48.358;2.122;2023-01-23T01:56:57;102501.31;;;1.87;76.71
76404;BME280;65232;48.358;2.122;2023-01-23T01:57:26;102502.31;;;1.80;76.92
76404;BME280;65232;48.358;2.122;2023-01-23T01:57:53;102496.31;;;1.72;77.05
76404;BME280;65232;48.358;2.122;2023-01-23T01:58:19;102505.16;;;1.69;77.41
76404;BME280;65232;48.358;2.122;2023-01-23T01:58:48;102500.63;;;1.76;77.54
76404;BME280;65232;48.358;2.122;2023-01-23T01:59:15;102498.84;;;1.78;77.25
76404;BME280;65232;48.358;2.122;2023-01-23T02:00:12;102499.06;;;1.64;77.79
76404;BME280;65232;48.358;2.122;2023-01-23T02:00:43;102501.63;;;1.70;77.81
76404;BME280;65232;48.358;2.122;2023-01-23T02:01:10;102493.63;;;1.75;77.51
76404;BME280;65232;48.358;2.122;2023-01-23T02:01:38;102498.00;;;1.76;77.33
76404;BME280;65232;48.358;2.122;2023-01-23T02:02:11;102498.00;;;1.76;77.69
76404;BME280;65232;48.358;2.122;2023-01-23T02:02:43;102505.91;;;1.77;77.16
76404;BME280;65232;48.358;2.122;2023-01-23T02:03:09;102499.84;;;1.71;77.08
76404;BME280;65232;48.358;2.122;2023-01-23T02:03:35;102505.94;;;1.74;77.16
76404;BME280;65232;48.358;2.122;2023-01-23T02:04:01;102492.78;;;1.73;77.42
76404;BME280;65232;48.358;2.122;2023-01-23T02:04:28;102498.94;;;1.72;77.18
76404;BME280;65232;48.358;2.122;2023-01-23T02:05:03;102500.56;;;1.79;77.46
76404;BME280;65232;48.358;2.122;2023-01-23T02:05:33;102497.34;;;1.63;77.57
76404;BME280;65232;48.358;2.122;2023-01-23T02:05:59;102494.81;;;1.57;77.75
76404;BME280;65232;48.358;2.122;2023-01-23T02:06:26;102499.28;;;1.54;77.80
76404;BME280;65232;48.358;2.122;2023-01-23T02:06:52;102498.31;;;1.59;77.72
76404;BME280;65232;48.358;2.122;2023-01-23T02:07:22;102494.81;;;1.57;78.05
76404;BME280;65232;48.358;2.122;2023-01-23T02:08:29;102497.28;;;1.66;77.66
76404;BME280;65232;48.358;2.122;2023-01-23T02:09:04;102495.38;;;1.74;77.56
76404;BME280;65232;48.358;2.122;2023-01-23T02:09:33;102494.59;;;1.69;77.40
76404;BME280;65232;48.358;2.122;2023-01-23T02:10:02;102491.06;;;1.70;77.30
76404;BME280;65232;48.358;2.122;2023-01-23T02:10:29;102496.34;;;1.70;77.79
76404;BME280;65232;48.358;2.122;2023-01-23T02:10:54;102494.63;;;1.68;77.75
76404;BME280;65232;48.358;2.122;2023-01-23T02:11:20;102490.19;;;1.70;77.76
76404;BME280;65232;48.358;2.122;2023-01-23T02:11:47;102488.41;;;1.72;77.59
76404;BME280;65232;48.358;2.122;2023-01-23T02:12:13;102492.88;;;1.67;77.67
76404;BME280;65232;48.358;2.122;2023-01-23T02:12:39;102490.19;;;1.70;77.58
76404;BME280;65232;48.358;2.122;2023-01-23T02:13:43;102497.22;;;1.71;77.56
76404;BME280;65232;48.358;2.122;2023-01-23T02:14:10;102488.41;;;1.72;77.56
76404;BME280;65232;48.358;2.122;2023-01-23T02:14:36;102488.41;;;1.72;77.57
76404;BME280;65232;48.358;2.122;2023-01-23T02:15:04;102491.91;;;1.72;77.37
76404;BME280;65232;48.358;2.122;2023-01-23T02:15:30;102492.00;;;1.66;77.32
76404;BME280;65232;48.358;2.122;2023-01-23T02:15:57;102500.09;;;1.57;77.49
76404;BME280;65232;48.358;2.122;2023-01-23T02:16:28;102487.81;;;1.56;77.75
76404;BME280;65232;48.358;2.122;2023-01-23T02:16:54;102492.13;;;1.60;77.67
76404;BME280;65232;48.358;2.122;2023-01-23T02:17:25;102489.50;;;1.60;77.65
76404;BME280;65232;48.358;2.122;2023-01-23T02:17:51;102492.13;;;1.60;77.84
76404;BME280;65232;48.358;2.122;2023-01-23T02:18:19;102494.66;;;1.66;77.70
76404;BME280;65232;48.358;2.122;2023-01-23T02:18:48;102490.28;;;1.64;77.88
76404;BME280;65232;48.358;2.122;2023-01-23T02:20:03;102487.75;;;1.61;77.94
76404;BME280;65232;48.358;2.122;2023-01-23T02:20:43;102492.78;;;1.73;77.75
76404;BME280;65232;48.358;2.122;2023-01-23T02:21:11;102487.44;;;1.76;77.54
76404;BME280;65232;48.358;2.122;2023-01-23T02:21:39;102496.34;;;1.70;77.64
76404;BME280;65232;48.358;2.122;2023-01-23T02:22:20;102495.38;;;1.74;77.47
76404;BME280;65232;48.358;2.122;2023-01-23T02:23:06;102488.41;;;1.72;77.49
76404;BME280;65232;48.358;2.122;2023-01-23T02:23:48;102492.63;;;1.79;77.45
76404;BME280;65232;48.358;2.122;2023-01-23T02:24:34;102491.75;;;1.80;77.56
76404;BME280;65232;48.358;2.122;2023-01-23T02:25:16;102484.66;;;1.84;77.35
76404;BME280;65232;48.358;2.122;2023-01-23T02:25:54;102492.47;;;1.90;77.03
76404;BME280;65232;48.358;2.122;2023-01-23T02:26:29;102487.13;;;1.93;76.79
76404;BME280;65232;48.358;2.122;2023-01-23T02:26:57;102478.38;;;1.91;76.93
76404;BME280;65232;48.358;2.122;2023-01-23T02:27:23;102491.47;;;1.94;76.87
76404;BME280;65232;48.358;2.122;2023-01-23T02:27:51;102480.09;;;1.92;76.70